Time;durP1;ratioP1;P1;durP2;ratioP2;P2;SDS_P1;SDS_P2;PMS_P1;PMS_P2;Temp;Humidity;BMP_temperature;BMP_pressure;BME280_temperature;BME280_humidity;BME280_pressure;Samples;Min_cycle;Max_cycle;Signal;HPM_P1;HPM_P2
2022/02/24 00:01:59;;;;;;;7.10;3.65;;;;;;;5.98;65.42;100523.19;5069774;28;20415;-22
2022/02/24 00:04:25;;;;;;;9.35;4.05;;;;;;;6.07;64.90;100525.78;5070165;28;20105;-22
2022/02/24 00:06:51;;;;;;;10.23;3.92;;;;;;;6.09;64.35;100513.19;5069613;28;20028;-22
2022/02/24 00:09:16;;;;;;;12.80;4.82;;;;;;;6.07;65.17;100500.16;5051699;28;20051;-22
2022/02/24 00:11:42;;;;;;;9.10;3.63;;;;;;;5.99;65.34;100513.47;5069187;28;20048;-22
2022/02/24 00:14:07;;;;;;;8.82;3.97;;;;;;;5.96;65.72;100522.56;5070045;28;20040;-22
2022/02/24 00:16:33;;;;;;;10.15;4.00;;;;;;;5.80;65.45;100488.25;5069685;28;20521;-21
2022/02/24 00:18:58;;;;;;;10.68;4.55;;;;;;;5.93;64.80;100501.72;5069530;28;20024;-21
2022/02/24 00:21:24;;;;;;;7.97;3.80;;;;;;;6.09;65.29;100499.94;5069435;28;20098;-22
2022/02/24 00:23:49;;;;;;;10.68;4.47;;;;;;;6.15;64.89;100507.19;5069273;28;20025;-23
2022/02/24 00:26:15;;;;;;;12.02;4.68;;;;;;;6.09;64.81;100497.31;5051314;28;20097;-21
2022/02/24 00:28:40;;;;;;;7.85;3.90;;;;;;;6.02;64.95;100495.38;5069408;28;20400;-22
2022/02/24 00:31:09;;;;;;;7.13;3.90;;;;;;;6.04;65.08;100493.38;5051414;28;20033;-22
2022/02/24 00:33:38;;;;;;;;;;;;;;;5.97;65.70;100497.75;5069882;28;20047;-22
2022/02/24 00:36:05;;;;;;;10.18;4.50;;;;;;;5.89;66.08;100495.13;5051270;28;19923;-22
2022/02/24 00:38:30;;;;;;;9.75;5.85;;;;;;;5.86;66.61;100484.06;5050842;28;20035;-23
2022/02/24 00:40:55;;;;;;;10.98;4.38;;;;;;;6.07;65.47;100484.28;5034480;28;20036;-22
2022/02/24 00:43:21;;;;;;;10.55;5.43;;;;;;;6.16;64.95;100483.19;5069144;28;20033;-22
2022/02/24 00:45:47;;;;;;;9.98;4.32;;;;;;;6.12;65.14;100486.38;5069060;28;20528;-21
2022/02/24 00:48:12;;;;;;;7.53;3.90;;;;;;;6.12;64.70;100491.66;5068903;28;20029;-22
2022/02/24 00:50:38;;;;;;;8.32;4.25;;;;;;;6.06;64.97;100484.44;5068557;28;20488;-22
2022/02/24 00:53:04;;;;;;;9.00;3.63;;;;;;;5.98;65.35;100485.31;5050879;28;20032;-22
2022/02/24 00:55:29;;;;;;;9.68;5.03;;;;;;;5.89;65.98;100478.44;5068913;28;20079;-22
2022/02/24 00:57:55;;;;;;;8.60;4.18;;;;;;;5.78;65.99;100458.47;5051136;28;20770;-22
2022/02/24 01:00:20;;;;;;;12.57;5.32;;;;;;;6.06;65.00;100476.50;5050846;28;20036;-23
2022/02/24 01:02:46;;;;;;;13.07;4.85;;;;;;;6.10;65.24;100467.19;5068519;28;20033;-22
2022/02/24 01:05:11;;;;;;;11.18;4.47;;;;;;;6.07;64.90;100472.84;5068697;28;20024;-22
2022/02/24 01:07:37;;;;;;;9.95;4.50;;;;;;;6.07;64.93;100471.03;5033881;28;20036;-21
2022/02/24 01:10:03;;;;;;;10.98;4.63;;;;;;;6.07;64.77;100470.19;5050481;28;20035;-22
2022/02/24 01:12:29;;;;;;;8.95;4.60;;;;;;;5.99;64.64;100466.63;5067787;28;20409;-22
2022/02/24 01:14:54;;;;;;;11.43;4.78;;;;;;;6.11;65.23;100464.38;5068321;28;20031;-22
2022/02/24 01:17:20;;;;;;;8.02;4.50;;;;;;;6.05;64.10;100473.03;5068216;28;20036;-22
2022/02/24 01:19:45;;;;;;;11.55;5.05;;;;;;;5.93;64.55;100462.00;5068599;28;20044;-22
2022/02/24 01:22:11;;;;;;;11.20;5.10;;;;;;;5.87;64.98;100469.84;5050479;28;20113;-22
2022/02/24 01:24:36;;;;;;;9.30;5.38;;;;;;;6.05;64.60;100465.09;5067866;28;20142;-21
2022/02/24 01:27:03;;;;;;;8.38;4.88;;;;;;;5.94;64.11;100458.34;5068422;28;20476;-22
2022/02/24 01:29:29;;;;;;;9.90;5.22;;;;;;;5.88;64.80;100463.53;5050497;28;20028;-21
2022/02/24 01:31:54;;;;;;;9.10;4.80;;;;;;;5.77;64.82;100456.84;5068346;28;20503;-23
2022/02/24 01:34:20;;;;;;;10.18;5.15;;;;;;;5.80;64.92;100461.78;5068094;28;20036;-22
2022/02/24 01:36:46;;;;;;;8.90;5.78;;;;;;;5.95;64.58;100465.34;5067964;28;20078;-22
2022/02/24 01:39:11;;;;;;;9.65;5.13;;;;;;;5.94;65.02;100468.94;5049739;28;20032;-22
2022/02/24 01:41:37;;;;;;;9.68;4.78;;;;;;;5.88;65.19;100456.41;5050388;28;20412;-21
2022/02/24 01:44:10;;;;;;;8.52;5.05;;;;;;;5.86;64.30;100461.06;5050101;28;20029;-22
2022/02/24 01:46:36;;;;;;;9.98;5.65;;;;;;;5.86;64.70;100476.94;5050039;28;20025;-22
2022/02/24 01:49:03;;;;;;;12.27;5.53;;;;;;;6.00;64.84;100481.50;5033796;28;20139;-22
2022/02/24 01:51:29;;;;;;;9.73;6.03;;;;;;;6.00;64.37;100484.13;5049591;28;20023;-21
2022/02/24 01:53:54;;;;;;;10.90;5.55;;;;;;;6.03;64.97;100480.31;5049626;28;20040;-22
2022/02/24 01:56:20;;;;;;;9.55;5.43;;;;;;;6.06;64.43;100479.16;5050014;28;20032;-22
2022/02/24 01:58:45;;;;;;;9.25;4.88;;;;;;;5.94;64.32;100471.59;5067662;28;20032;-21
2022/02/24 02:01:11;;;;;;;10.13;5.38;;;;;;;5.99;64.42;100493.09;5067922;28;20035;-22
2022/02/24 02:03:39;;;;;;;9.80;5.70;;;;;;;6.04;64.87;100469.53;5067834;28;20419;-22
2022/02/24 02:06:05;;;;;;;9.13;5.60;;;;;;;6.23;64.99;100484.13;5033295;28;20047;-22
2022/02/24 02:08:30;;;;;;;13.85;6.75;;;;;;;6.29;63.87;100487.84;5067535;28;20024;-23
2022/02/24 02:10:56;;;;;;;10.00;5.15;;;;;;;6.20;64.48;100479.16;5049875;28;20024;-22
2022/02/24 02:13:21;;;;;;;7.78;5.13;;;;;;;6.15;64.24;100486.84;5049177;28;20138;-22
2022/02/24 02:15:47;;;;;;;11.90;6.00;;;;;;;6.00;64.40;100467.44;5067722;28;20032;-21
2022/02/24 02:18:12;;;;;;;10.20;5.85;;;;;;;6.22;64.22;100479.81;5049628;28;20056;-22
2022/02/24 02:20:39;;;;;;;11.55;5.30;;;;;;;6.27;63.37;100460.72;5067400;28;20055;-22
2022/02/24 02:23:05;;;;;;;10.30;5.53;;;;;;;6.35;63.47;100489.78;5067990;28;20063;-21
2022/02/24 02:25:30;;;;;;;10.73;5.30;;;;;;;6.17;64.37;100484.00;5071421;28;20472;-22
2022/02/24 02:27:56;;;;;;;11.73;5.63;;;;;;;6.20;64.58;100484.47;5053683;28;20032;-22
2022/02/24 02:30:21;;;;;;;11.10;5.63;;;;;;;6.37;63.82;100485.13;5053777;28;20036;-22
2022/02/24 02:32:47;;;;;;;10.73;5.40;;;;;;;6.24;64.20;100474.34;5053418;28;20047;-22
2022/02/24 02:35:12;;;;;;;12.35;5.65;;;;;;;6.42;64.73;100495.19;5071633;28;20032;-22
2022/02/24 02:37:38;;;;;;;10.30;6.45;;;;;;;6.56;64.74;100483.78;5071627;28;20385;-22
2022/02/24 02:40:05;;;;;;;13.52;7.15;;;;;;;6.43;65.78;100481.75;5036759;28;20028;-21
2022/02/24 02:42:30;;;;;;;16.73;8.35;;;;;;;6.68;66.12;100497.41;5071091;28;20066;-22
2022/02/24 02:44:56;;;;;;;14.50;8.35;;;;;;;6.67;66.21;100505.53;5053276;28;20028;-22
2022/02/24 02:47:21;;;;;;;9.30;6.97;;;;;;;6.61;64.98;100507.91;5071666;28;20097;-22
2022/02/24 02:49:47;;;;;;;11.13;6.85;;;;;;;6.90;64.52;100511.56;5036349;28;20025;-22
2022/02/24 02:52:12;;;;;;;12.35;7.05;;;;;;;6.71;66.38;100490.91;5053299;28;20115;-22
2022/02/24 02:54:38;;;;;;;38.72;7.60;;;;;;;6.82;65.16;100509.00;5053284;28;20185;-22
2022/02/24 02:57:03;;;;;;;9.50;5.95;;;;;;;6.88;64.87;100518.06;5071001;28;20086;-22
2022/02/24 02:59:29;;;;;;;9.60;6.40;;;;;;;6.75;66.95;100529.31;5071103;28;20028;-22
2022/02/24 03:01:54;;;;;;;12.18;6.50;;;;;;;6.81;64.96;100508.19;5052912;28;20047;-22
2022/02/24 03:04:20;;;;;;;21.02;11.23;;;;;;;6.80;65.79;100517.16;5053061;28;20056;-22
2022/02/24 03:06:46;;;;;;;16.35;9.88;;;;;;;6.96;66.04;100531.22;5052700;28;20144;-22
2022/02/24 03:09:11;;;;;;;16.50;10.50;;;;;;;6.61;67.25;100528.28;5071111;28;20467;-21
2022/02/24 03:11:37;;;;;;;12.52;8.10;;;;;;;6.51;67.18;100519.78;5036089;28;20063;-22
2022/02/24 03:14:02;;;;;;;12.60;6.80;;;;;;;6.55;67.52;100536.97;5070643;28;20043;-22
2022/02/24 03:16:28;;;;;;;11.85;5.88;;;;;;;6.67;67.60;100529.38;5070657;28;20664;-22
2022/02/24 03:18:53;;;;;;;10.18;7.00;;;;;;;6.78;66.66;100535.06;5052271;28;20051;-22
2022/02/24 03:21:19;;;;;;;10.82;7.00;;;;;;;6.97;66.50;100528.38;5052433;28;20036;-22
2022/02/24 03:23:45;;;;;;;11.20;7.05;;;;;;;6.84;66.20;100504.34;5071082;28;20101;-22
2022/02/24 03:26:11;;;;;;;13.32;6.68;;;;;;;6.98;67.04;100535.31;5052620;28;20403;-22
2022/02/24 03:28:38;;;;;;;10.55;6.53;;;;;;;6.92;66.76;100536.06;5052284;28;20056;-21
2022/02/24 03:31:04;;;;;;;11.10;6.50;;;;;;;7.17;65.81;100541.91;5070706;28;20024;-21
2022/02/24 03:33:30;;;;;;;10.52;6.65;;;;;;;7.20;65.53;100549.47;5035893;28;20033;-22
2022/02/24 03:35:55;;;;;;;9.88;6.57;;;;;;;7.29;66.03;100541.41;5051907;28;20048;-22
2022/02/24 03:38:21;;;;;;;11.57;6.80;;;;;;;6.99;66.98;100539.63;5070464;28;20060;-22
2022/02/24 03:40:46;;;;;;;10.27;6.28;;;;;;;7.19;66.79;100542.53;5069945;28;20040;-22
2022/02/24 03:43:12;;;;;;;8.98;5.78;;;;;;;7.30;66.92;100551.84;5070478;28;20032;-22
2022/02/24 03:45:37;;;;;;;12.48;7.00;;;;;;;7.42;66.65;100546.91;5052252;28;20389;-22
2022/02/24 03:48:03;;;;;;;12.48;6.20;;;;;;;7.33;66.00;100548.00;5070060;28;20051;-21
2022/02/24 03:50:28;;;;;;;12.75;7.43;;;;;;;7.52;64.73;100552.72;5069807;28;20040;-22
2022/02/24 03:52:54;;;;;;;13.00;6.88;;;;;;;7.60;65.32;100554.44;5051915;28;20035;-22
2022/02/24 03:55:19;;;;;;;9.05;5.93;;;;;;;7.43;66.17;100553.84;5070213;28;20786;-23
2022/02/24 03:57:45;;;;;;;11.25;6.32;;;;;;;7.58;64.86;100552.00;5051838;28;20201;-22
2022/02/24 04:00:11;;;;;;;11.55;6.07;;;;;;;7.26;64.49;100536.50;5069910;28;20035;-22
2022/02/24 04:02:36;;;;;;;10.55;6.55;;;;;;;7.49;64.85;100550.44;5069748;28;20027;-22
2022/02/24 04:05:02;;;;;;;11.75;6.18;;;;;;;7.32;64.66;100557.81;5069732;28;20536;-22
2022/02/24 04:07:28;;;;;;;10.13;6.03;;;;;;;7.00;65.40;100528.00;5069965;28;20025;-22
2022/02/24 04:09:53;;;;;;;9.00;6.43;;;;;;;6.89;65.47;100530.31;5035230;28;20039;-23
2022/02/24 04:12:18;;;;;;;9.55;5.72;;;;;;;6.99;66.45;100552.06;5051193;28;20109;-22
2022/02/24 04:14:45;;;;;;;9.23;6.03;;;;;;;6.99;66.42;100547.59;5034975;28;20028;-22
2022/02/24 04:17:10;;;;;;;9.02;5.53;;;;;;;6.59;67.90;100535.59;5051512;28;20036;-22
2022/02/24 04:19:35;;;;;;;10.18;6.22;;;;;;;6.89;67.83;100546.22;5051233;28;20021;-22
2022/02/24 04:22:01;;;;;;;8.35;5.90;;;;;;;6.73;67.68;100548.03;5051536;28;20036;-22
2022/02/24 04:24:26;;;;;;;10.60;6.07;;;;;;;6.80;68.07;100548.97;5035114;28;20570;-22
2022/02/24 04:26:52;;;;;;;10.43;6.03;;;;;;;6.65;67.71;100545.47;5034650;28;20040;-21
2022/02/24 04:29:17;;;;;;;12.82;6.35;;;;;;;6.36;67.98;100547.06;5069329;28;20785;-23
2022/02/24 04:31:43;;;;;;;10.57;5.88;;;;;;;6.36;67.86;100547.06;5068443;28;20025;-22
2022/02/24 04:34:08;;;;;;;7.40;4.85;;;;;;;6.32;68.28;100545.78;5067565;28;20035;-22
2022/02/24 04:36:34;;;;;;;10.60;5.40;;;;;;;6.08;68.52;100553.94;5051053;28;20028;-21
2022/02/24 04:38:59;;;;;;;8.23;6.07;;;;;;;6.18;68.12;100554.50;5069301;28;20539;-22
2022/02/24 04:41:25;;;;;;;8.93;5.38;;;;;;;6.07;68.10;100554.91;5069227;28;20765;-22
2022/02/24 04:43:50;;;;;;;9.77;5.45;;;;;;;5.80;68.43;100546.47;5069178;28;20044;-21
2022/02/24 04:46:15;;;;;;;9.95;5.75;;;;;;;5.90;67.41;100549.69;5068279;28;20044;-22
2022/02/24 04:48:41;;;;;;;7.70;5.70;;;;;;;5.75;67.22;100548.84;5068540;28;20032;-23
2022/02/24 04:51:06;;;;;;;8.02;4.85;;;;;;;5.98;67.39;100562.91;5068736;28;20025;-22
2022/02/24 04:53:32;;;;;;;9.10;5.90;;;;;;;5.84;66.60;100538.03;5069188;28;20070;-22
2022/02/24 04:55:57;;;;;;;8.60;5.45;;;;;;;6.12;65.84;100549.91;5069007;28;20385;-22
2022/02/24 04:58:23;;;;;;;12.00;7.53;;;;;;;6.39;65.27;100575.84;5068688;28;20028;-22
2022/02/24 05:00:48;;;;;;;8.25;5.00;;;;;;;6.58;64.32;100579.00;5050523;28;20036;-21
2022/02/24 05:03:14;;;;;;;9.60;5.60;;;;;;;6.47;64.99;100574.94;5068450;28;20032;-21
2022/02/24 05:05:39;;;;;;;10.23;5.45;;;;;;;6.51;63.83;100570.13;5068939;28;20059;-21
2022/02/24 05:08:05;;;;;;;7.95;5.00;;;;;;;6.33;64.29;100587.13;5068591;28;20068;-23
2022/02/24 05:10:31;;;;;;;9.15;4.63;;;;;;;6.28;65.02;100591.34;5050586;28;20714;-24
2022/02/24 05:12:56;;;;;;;8.90;5.07;;;;;;;6.28;64.82;100594.00;5050177;28;20064;-22
2022/02/24 05:15:22;;;;;;;7.38;4.50;;;;;;;6.30;65.12;100592.81;5068601;28;20040;-22
2022/02/24 05:17:47;;;;;;;6.38;4.10;;;;;;;6.44;63.99;100594.69;5033949;28;20073;-23
2022/02/24 05:20:13;;;;;;;5.68;3.90;;;;;;;6.13;65.02;100608.00;5050539;28;20028;-22
2022/02/24 05:22:41;;;;;;;7.93;4.55;;;;;;;6.15;65.38;100613.09;5068424;28;20024;-22
2022/02/24 05:25:07;;;;;;;9.07;4.57;;;;;;;6.20;64.33;100601.00;5068216;28;20847;-22
2022/02/24 05:27:33;;;;;;;8.50;4.85;;;;;;;6.19;64.88;100603.81;5050713;28;20032;-22
2022/02/24 05:29:58;;;;;;;8.20;3.95;;;;;;;6.18;64.33;100623.38;5067964;28;20028;-28
2022/02/24 05:32:24;;;;;;;7.13;3.90;;;;;;;5.96;64.74;100632.94;5068081;28;20033;-22
2022/02/24 05:34:49;;;;;;;8.02;4.05;;;;;;;5.89;66.83;100640.72;5067832;28;20060;-22
2022/02/24 05:37:15;;;;;;;10.90;4.80;;;;;;;5.82;67.71;100637.94;5068120;28;20484;-22
2022/02/24 05:39:41;;;;;;;8.10;4.38;;;;;;;5.87;68.55;100653.31;5068002;28;20040;-22
2022/02/24 05:42:07;;;;;;;8.82;4.55;;;;;;;6.02;67.49;100664.81;5067984;28;20093;-22
2022/02/24 05:44:32;;;;;;;10.55;4.55;;;;;;;6.11;68.21;100670.06;5049988;28;20032;-22
2022/02/24 05:46:58;;;;;;;10.80;4.65;;;;;;;6.05;66.97;100655.72;5067798;28;20082;-22
2022/02/24 05:49:23;;;;;;;9.13;4.85;;;;;;;5.82;69.05;100676.81;5050421;28;20373;-23
2022/02/24 05:51:49;;;;;;;17.92;14.88;;;;;;;5.96;68.59;100657.56;5067787;28;20044;-22
2022/02/24 05:54:15;;;;;;;10.25;4.97;;;;;;;6.11;68.83;100662.97;5067877;28;20063;-22
2022/02/24 05:56:40;;;;;;;9.45;5.00;;;;;;;6.12;68.98;100683.13;5067558;28;20029;-22
2022/02/24 05:59:06;;;;;;;8.65;4.80;;;;;;;5.99;69.29;100689.00;5067518;28;20032;-22
2022/02/24 06:01:31;;;;;;;7.72;4.20;;;;;;;5.62;68.76;100687.81;5049571;28;20053;-22
2022/02/24 06:03:57;;;;;;;21.75;16.08;;;;;;;6.04;68.90;100699.88;5067822;28;20040;-22
2022/02/24 06:06:22;;;;;;;10.75;5.28;;;;;;;6.12;69.11;100709.63;5067912;28;20032;-22
2022/02/24 06:08:48;;;;;;;8.52;4.15;;;;;;;6.10;67.25;100705.50;5049577;28;20500;-22
2022/02/24 06:11:13;;;;;;;10.20;4.47;;;;;;;5.79;67.80;100701.81;5067870;28;20040;-21
2022/02/24 06:13:38;;;;;;;12.63;4.57;;;;;;;5.43;68.47;100704.06;5067735;28;20047;-22
2022/02/24 06:16:04;;;;;;;8.25;3.60;;;;;;;5.46;68.49;100700.28;5067715;28;20404;-22
2022/02/24 06:18:29;;;;;;;9.82;5.53;;;;;;;5.74;68.96;100712.09;5067656;28;20044;-22
2022/02/24 06:20:55;;;;;;;9.15;6.35;;;;;;;5.89;67.83;100708.72;5067490;28;20040;-22
2022/02/24 06:23:20;;;;;;;10.57;5.90;;;;;;;6.12;67.51;100704.31;5067759;28;20037;-22
2022/02/24 06:25:46;;;;;;;8.25;4.88;;;;;;;6.27;66.81;100717.63;5049429;28;20091;-22
2022/02/24 06:28:11;;;;;;;6.22;3.50;;;;;;;5.75;67.60;100739.38;5067739;28;20027;-21
2022/02/24 06:30:37;;;;;;;11.73;4.18;;;;;;;5.81;67.62;100713.03;5067285;28;20404;-22
2022/02/24 06:33:03;;;;;;;10.10;4.85;;;;;;;6.09;67.49;100731.16;5067627;28;20041;-22
2022/02/24 06:35:28;;;;;;;8.38;3.40;;;;;;;6.44;65.32;100751.00;5033048;28;20024;-22
2022/02/24 06:37:54;;;;;;;11.95;5.57;;;;;;;6.65;66.35;100765.44;5049491;28;20028;-22
2022/02/24 06:40:19;;;;;;;12.00;6.32;;;;;;;6.71;65.80;100758.63;5067682;28;20400;-22
2022/02/24 06:42:45;;;;;;;21.05;10.73;;;;;;;6.31;65.54;100750.72;5067338;28;20063;-22
2022/02/24 06:45:10;;;;;;;8.52;4.05;;;;;;;6.49;65.92;100768.19;5067792;28;20548;-22
2022/02/24 06:47:36;;;;;;;8.70;5.18;;;;;;;6.34;66.01;100761.00;5049170;28;20063;-22
2022/02/24 06:50:03;;;;;;;4.55;2.80;;;;;;;6.58;65.17;100761.88;5067433;28;20630;-22
2022/02/24 06:52:28;;;;;;;5.22;2.80;;;;;;;6.64;65.62;100769.13;5067349;28;20031;-22
2022/02/24 06:54:55;;;;;;;6.30;3.25;;;;;;;6.63;65.64;100773.56;5049191;28;20029;-22
2022/02/24 06:57:20;;;;;;;6.10;2.92;;;;;;;6.41;65.52;100758.47;5067264;28;20032;-23
2022/02/24 06:59:46;;;;;;;6.55;2.42;;;;;;;6.24;66.67;100781.56;5049109;28;20024;-22
2022/02/24 07:02:11;;;;;;;6.93;3.40;;;;;;;6.41;66.99;100772.53;5067036;28;20037;-22
2022/02/24 07:04:37;;;;;;;6.40;2.97;;;;;;;6.53;66.40;100780.91;5067162;28;20036;-22
2022/02/24 07:07:02;;;;;;;5.00;2.80;;;;;;;6.68;66.47;100786.31;5067023;28;20401;-22
2022/02/24 07:09:28;;;;;;;6.35;2.90;;;;;;;6.78;65.25;100784.25;5067274;28;20031;-22
2022/02/24 07:11:54;;;;;;;5.50;2.90;;;;;;;7.53;63.89;100793.25;5052896;28;20048;-21
2022/02/24 07:14:20;;;;;;;5.07;2.72;;;;;;;8.75;63.87;100802.59;5052579;28;20501;-22
2022/02/24 07:16:45;;;;;;;8.82;4.22;;;;;;;11.13;57.95;100796.16;5052380;28;20121;-22
2022/02/24 07:19:10;;;;;;;9.68;4.88;;;;;;;11.03;56.95;100811.75;5070472;28;20052;-21
2022/02/24 07:21:36;;;;;;;7.75;2.95;;;;;;;11.32;55.93;100807.88;5070737;28;20028;-22
2022/02/24 07:24:02;;;;;;;6.80;3.17;;;;;;;11.25;55.99;100793.69;5070721;28;20055;-21
2022/02/24 07:26:27;;;;;;;10.45;5.13;;;;;;;11.00;53.31;100812.16;5070564;28;20028;-21
2022/02/24 07:28:53;;;;;;;23.70;11.32;;;;;;;10.30;56.43;100817.72;5070249;28;20036;-22
2022/02/24 07:31:18;;;;;;;36.45;17.90;;;;;;;10.04;57.65;100813.84;5035806;28;20755;-22
2022/02/24 07:33:44;;;;;;;24.33;14.48;;;;;;;10.37;55.07;100807.06;5070564;28;20032;-22
2022/02/24 07:36:10;;;;;;;5.72;2.80;;;;;;;9.85;55.77;100819.91;5052350;28;20047;-22
2022/02/24 07:38:35;;;;;;;4.57;2.65;;;;;;;10.52;54.34;100822.91;5069981;28;20059;-22
2022/02/24 07:41:00;;;;;;;12.13;5.68;;;;;;;12.56;55.19;100805.31;5070311;28;20032;-22
2022/02/24 07:43:26;;;;;;;3.60;2.15;;;;;;;10.50;52.36;100817.78;5070283;28;20024;-22
2022/02/24 07:45:51;;;;;;;4.78;2.20;;;;;;;10.03;53.51;100809.56;5069828;28;20416;-22
2022/02/24 07:48:17;;;;;;;4.55;2.22;;;;;;;11.84;49.96;100808.03;5070529;28;20050;-22
2022/02/24 07:50:42;;;;;;;4.35;2.38;;;;;;;10.35;52.57;100825.91;5069793;28;20424;-22
2022/02/24 07:53:08;;;;;;;6.40;3.55;;;;;;;10.69;53.52;100815.38;5070048;28;20020;-22
2022/02/24 07:55:34;;;;;;;4.22;1.80;;;;;;;10.43;51.40;100824.94;5069909;28;20040;-22
2022/02/24 07:57:59;;;;;;;3.80;1.90;;;;;;;10.92;53.09;100825.69;5069579;28;20044;-23
2022/02/24 08:00:25;;;;;;;3.30;1.48;;;;;;;11.05;53.72;100831.03;5069467;28;20047;-22
2022/02/24 08:02:51;;;;;;;4.25;1.73;;;;;;;11.45;50.14;100839.09;5069599;28;20039;-22
2022/02/24 08:05:17;;;;;;;4.28;1.80;;;;;;;10.31;52.71;100840.66;5069962;28;20115;-22
2022/02/24 08:07:42;;;;;;;2.55;1.70;;;;;;;9.33;53.75;100847.78;5051704;28;20468;-22
2022/02/24 08:10:08;;;;;;;6.20;2.90;;;;;;;9.43;57.79;100833.09;5069675;28;20408;-22
2022/02/24 08:12:39;;;;;;;3.47;2.08;;;;;;;10.53;55.10;100837.91;5069217;28;20047;-22
2022/02/24 08:15:09;;;;;;;2.20;1.40;;;;;;;10.38;50.38;100836.22;5069234;28;20047;-22
2022/02/24 08:17:34;;;;;;;3.20;1.50;;;;;;;9.90;52.40;100838.78;5069723;28;20028;-22
2022/02/24 08:20:01;;;;;;;3.33;1.45;;;;;;;9.77;53.68;100841.38;5069573;28;20385;-21
2022/02/24 08:22:26;;;;;;;3.53;1.45;;;;;;;9.90;54.71;100833.44;5034846;28;20037;-22
2022/02/24 08:24:52;;;;;;;4.65;1.58;;;;;;;9.51;55.85;100840.13;5069094;28;20040;-22
2022/02/24 08:27:17;;;;;;;13.05;7.78;;;;;;;9.54;55.00;100839.78;5069161;28;20028;-23
2022/02/24 08:29:43;;;;;;;48.13;35.47;;;;;;;9.82;54.63;100830.94;5069792;28;20032;-22
2022/02/24 08:32:08;;;;;;;70.90;63.65;;;;;;;9.62;54.81;100839.63;5069220;28;20040;-21
2022/02/24 08:34:34;;;;;;;34.35;31.48;;;;;;;9.51;55.69;100834.00;5069222;28;20036;-22
2022/02/24 08:36:59;;;;;;;20.88;19.30;;;;;;;9.54;54.35;100838.91;5068900;28;20024;-22
2022/02/24 08:39:25;;;;;;;11.75;10.75;;;;;;;9.74;55.11;100844.41;5069245;28;20500;-21
2022/02/24 08:41:50;;;;;;;5.43;3.30;;;;;;;9.75;53.09;100840.75;5068716;28;20059;-22
2022/02/24 08:44:16;;;;;;;6.50;5.28;;;;;;;9.90;53.05;100838.78;5068908;28;20040;-22
2022/02/24 08:46:42;;;;;;;5.72;4.20;;;;;;;10.09;53.38;100855.06;5068381;28;20043;-23
2022/02/24 08:49:07;;;;;;;3.38;2.30;;;;;;;9.69;52.66;100844.19;5051260;28;20106;-22
2022/02/24 08:51:33;;;;;;;3.60;2.05;;;;;;;9.58;52.15;100835.69;5069058;28;20446;-22
2022/02/24 08:53:58;;;;;;;3.40;1.85;;;;;;;9.56;52.50;100845.72;5068847;28;20040;-22
2022/02/24 08:56:24;;;;;;;2.75;1.77;;;;;;;9.70;53.10;100837.81;5068828;28;20033;-22
2022/02/24 08:58:49;;;;;;;4.22;2.15;;;;;;;9.61;52.37;100837.97;5068173;28;20058;-22
2022/02/24 09:01:15;;;;;;;23.30;20.77;;;;;;;9.68;51.71;100850.50;5068683;28;20618;-21
2022/02/24 09:03:40;;;;;;;24.55;18.05;;;;;;;9.75;50.99;100822.91;5068663;28;20028;-22
2022/02/24 09:06:05;;;;;;;12.98;9.90;;;;;;;9.87;52.50;100839.19;5068583;28;20043;-22
2022/02/24 09:08:31;;;;;;;22.63;16.38;;;;;;;9.77;52.44;100838.69;5068218;28;20029;-22
2022/02/24 09:11:02;;;;;;;17.05;11.93;;;;;;;9.60;51.79;100839.00;5068427;28;20048;-22
2022/02/24 09:13:28;;;;;;;25.60;19.98;;;;;;;9.50;52.46;100835.84;5068295;28;20555;-21
2022/02/24 09:15:53;;;;;;;15.40;9.43;;;;;;;9.26;52.75;100831.75;5050225;28;20027;-22
2022/02/24 09:18:20;;;;;;;47.92;32.28;;;;;;;9.12;52.59;100814.84;5050396;28;20076;-22
2022/02/24 09:20:46;;;;;;;9.70;6.00;;;;;;;9.04;52.88;100844.22;5068222;28;20033;-21
2022/02/24 09:23:12;;;;;;;39.40;25.60;;;;;;;8.80;52.77;100829.44;5050276;28;20481;-22
2022/02/24 09:25:38;;;;;;;39.80;25.98;;;;;;;8.94;52.88;100827.75;5067832;28;20052;-22
2022/02/24 09:28:04;;;;;;;57.10;39.72;;;;;;;8.87;54.39;100829.50;5068071;28;20118;-22
2022/02/24 09:30:29;;;;;;;7.70;4.70;;;;;;;8.90;53.46;100847.75;5068143;28;20519;-22
2022/02/24 09:32:56;;;;;;;7.72;4.68;;;;;;;8.79;52.56;100846.44;5049720;28;20032;-22
2022/02/24 09:35:21;;;;;;;37.05;26.55;;;;;;;8.98;53.15;100847.66;5068236;28;20397;-22
2022/02/24 09:37:47;;;;;;;28.13;17.83;;;;;;;8.97;53.69;100849.50;5067901;28;20062;-22
2022/02/24 09:40:14;;;;;;;20.83;15.63;;;;;;;8.98;52.20;100835.16;5067895;28;20028;-21
2022/02/24 09:42:39;;;;;;;24.02;17.83;;;;;;;9.30;51.87;100848.97;5050271;28;20089;-23
2022/02/24 09:45:05;;;;;;;20.38;18.25;;;;;;;9.22;52.31;100833.97;5033598;28;20471;-22
2022/02/24 09:47:31;;;;;;;13.07;7.53;;;;;;;9.21;52.67;100834.13;5067962;28;20024;-22
2022/02/24 09:49:59;;;;;;;21.80;18.98;;;;;;;9.68;52.26;100839.84;5050042;28;20029;-21
2022/02/24 09:52:25;;;;;;;21.70;11.80;;;;;;;11.71;48.79;100854.31;5067825;28;20036;-22
2022/02/24 09:54:51;;;;;;;19.63;10.52;;;;;;;11.84;50.36;100856.94;5049468;28;20031;-22
2022/02/24 09:57:16;;;;;;;11.98;7.30;;;;;;;10.31;49.27;100845.19;5068232;28;20033;-21
2022/02/24 09:59:41;;;;;;;10.20;5.28;;;;;;;9.75;50.53;100859.38;5049857;28;20104;-22
2022/02/24 10:02:08;;;;;;;9.90;4.90;;;;;;;9.59;51.16;100847.97;5067699;28;20097;-22
2022/02/24 10:04:34;;;;;;;13.73;9.68;;;;;;;9.44;53.12;100850.75;5033029;28;20031;-22
2022/02/24 10:07:00;;;;;;;39.65;35.42;;;;;;;9.55;51.60;100852.06;5067664;28;20028;-23
2022/02/24 10:09:30;;;;;;;18.23;16.42;;;;;;;9.71;51.29;100844.81;5032824;28;20103;-22
2022/02/24 10:12:04;;;;;;;14.20;12.73;;;;;;;9.71;51.75;100845.63;5049499;28;20113;-22
2022/02/24 10:14:30;;;;;;;11.73;10.60;;;;;;;10.06;50.41;100838.47;5067549;28;20094;-22
2022/02/24 10:17:02;;;;;;;5.68;3.20;;;;;;;9.92;52.41;100847.41;5049842;28;20043;-22
2022/02/24 10:19:40;;;;;;;5.88;3.88;;;;;;;9.63;52.41;100853.75;5049937;28;20519;-22
2022/02/24 10:22:28;;;;;;;19.98;9.82;;;;;;;9.60;53.69;100828.34;5049816;28;20125;-22
2022/02/24 10:25:01;;;;;;;19.65;11.90;;;;;;;10.10;51.32;100848.75;5056154;28;20044;-22
2022/02/24 10:27:31;;;;;;;8.85;4.80;;;;;;;10.42;50.18;100832.13;5055554;28;20079;-22
2022/02/24 10:30:19;;;;;;;5.80;3.10;;;;;;;10.35;50.08;100841.91;5056062;28;20082;-21
2022/02/24 10:32:49;;;;;;;5.97;2.88;;;;;;;10.42;48.78;100842.78;5066767;28;20032;-23
2022/02/24 10:35:24;;;;;;;6.57;3.35;;;;;;;10.09;49.30;100841.75;5067537;28;20037;-22
2022/02/24 10:38:00;;;;;;;6.80;3.47;;;;;;;9.91;50.31;100831.59;5049257;28;20551;-22
2022/02/24 10:40:30;;;;;;;3.90;2.33;;;;;;;9.79;51.73;100853.47;5067334;28;20119;-22
2022/02/24 10:43:14;;;;;;;7.00;3.08;;;;;;;9.82;50.73;100849.59;5032943;28;20511;-22
2022/02/24 10:45:41;;;;;;;6.80;3.10;;;;;;;9.13;50.79;100840.41;5052632;28;20036;-22
2022/02/24 10:48:06;;;;;;;7.45;3.60;;;;;;;8.92;51.09;100837.75;5053247;28;20057;-22
2022/02/24 10:50:45;;;;;;;4.43;2.33;;;;;;;9.28;51.15;100844.88;5036301;28;20043;-22
2022/02/24 10:53:10;;;;;;;7.78;3.47;;;;;;;9.42;50.20;100841.31;5070893;28;20032;-22
2022/02/24 10:56:01;;;;;;;11.73;4.88;;;;;;;9.22;49.63;100841.94;5071484;28;20126;-22
2022/02/24 10:58:37;;;;;;;4.97;2.30;;;;;;;8.73;51.45;100836.53;5071022;28;20104;-22
2022/02/24 11:01:07;;;;;;;11.90;5.85;;;;;;;9.03;51.86;100837.25;5036987;28;20032;-21
2022/02/24 11:03:33;;;;;;;6.95;2.70;;;;;;;8.59;52.42;100812.44;5070682;28;20488;-22
2022/02/24 11:05:59;;;;;;;6.25;2.67;;;;;;;8.38;52.46;100817.69;5070925;28;20040;-22
2022/02/24 11:08:26;;;;;;;7.30;3.90;;;;;;;8.90;53.07;100831.81;5052918;28;20553;-22
2022/02/24 11:10:51;;;;;;;4.70;2.50;;;;;;;9.17;50.60;100836.34;5070516;28;20036;-22
2022/02/24 11:13:17;;;;;;;15.00;6.90;;;;;;;9.37;52.19;100830.41;5035718;28;20063;-22
2022/02/24 11:15:42;;;;;;;7.53;2.95;;;;;;;9.67;49.21;100832.91;5070824;28;20037;-22
2022/02/24 11:18:07;;;;;;;10.10;4.50;;;;;;;9.84;50.47;100828.91;5070347;28;20063;-23
2022/02/24 11:20:33;;;;;;;8.20;6.07;;;;;;;10.06;49.21;100822.47;5052529;28;20032;-22
2022/02/24 11:22:59;;;;;;;13.27;9.32;;;;;;;10.31;49.53;100814.00;5070791;28;20451;-22